Time;durP1;ratioP1;P1;durP2;ratioP2;P2;SDS_P1;SDS_P2;PMS_P1;PMS_P2;Temp;Humidity;BMP_temperature;BMP_pressure;BME280_temperature;BME280_humidity;BME280_pressure;Samples;Min_cycle;Max_cycle;Signal;HPM_P1;HPM_P2
2022/08/10 00:04:18;;;;;;;3.23;3.07;;;22.90;56.70;;;;;;10540286;28;20244;-78
2022/08/10 00:09:20;;;;;;;3.90;3.60;;;22.90;56.90;;;;;;10510888;28;20226;-78
2022/08/10 00:14:22;;;;;;;3.67;3.47;;;22.80;57.20;;;;;;10531813;28;20320;-78
2022/08/10 00:19:25;;;;;;;3.90;3.70;;;22.80;57.80;;;;;;10524313;28;20265;-78
2022/08/10 00:24:27;;;;;;;3.90;3.70;;;22.70;57.30;;;;;;10492659;28;20329;-77
2022/08/10 00:29:30;;;;;;;3.73;3.53;;;22.70;57.20;;;;;;10506740;28;20296;-78
2022/08/10 00:34:34;;;;;;;4.00;3.70;;;22.60;57.80;;;;;;10518213;28;20226;-78
2022/08/10 00:39:36;;;;;;;4.03;3.83;;;22.50;57.80;;;;;;10532726;28;20192;-78
2022/08/10 00:44:41;;;;;;;4.53;4.33;;;22.50;57.80;;;;;;10540708;28;20215;-78
2022/08/10 00:49:45;;;;;;;4.03;3.83;;;22.40;58.70;;;;;;10518608;28;20204;-78
2022/08/10 00:54:47;;;;;;;4.17;3.80;;;22.30;58.40;;;;;;10536904;28;20322;-78
2022/08/10 00:59:49;;;;;;;4.20;4.00;;;22.30;58.30;;;;;;10533457;28;20283;-78
2022/08/10 01:04:53;;;;;;;3.70;3.50;;;22.20;58.80;;;;;;10537564;28;20230;-78
2022/08/10 01:10:07;;;;;;;4.10;3.80;;;22.10;58.90;;;;;;10541904;28;20196;-78
2022/08/10 01:15:17;;;;;;;4.20;3.80;;;22.10;59.60;;;;;;10521042;28;20232;-78
2022/08/10 01:20:33;;;;;;;3.80;3.60;;;22.00;60.00;;;;;;10556102;22;20708;-78
2022/08/10 01:25:55;;;;;;;4.30;4.00;;;22.00;59.40;;;;;;10513175;28;20235;-80
2022/08/10 01:31:02;;;;;;;4.33;4.03;;;22.00;59.60;;;;;;10474307;28;20225;-79
2022/08/10 01:36:09;;;;;;;4.10;3.90;;;21.90;60.20;;;;;;10465420;28;20197;-78
2022/08/10 01:41:18;;;;;;;3.90;3.70;;;21.80;60.10;;;;;;10441953;28;20200;-81
2022/08/10 01:46:24;;;;;;;4.03;3.83;;;21.80;60.20;;;;;;10488291;28;20243;-79
2022/08/10 01:51:31;;;;;;;4.93;4.63;;;21.70;60.20;;;;;;10473614;28;20291;-80
2022/08/10 01:56:36;;;;;;;3.90;3.60;;;21.70;60.40;;;;;;10499420;28;20216;-80
2022/08/10 02:01:46;;;;;;;5.50;3.80;;;21.60;60.80;;;;;;10502362;28;20278;-81
2022/08/10 02:06:51;;;;;;;4.77;4.37;;;21.50;60.60;;;;;;10491576;28;20232;-81
2022/08/10 02:11:55;;;;;;;4.10;3.90;;;21.50;61.50;;;;;;10459271;28;20303;-84
2022/08/10 02:17:01;;;;;;;4.17;3.97;;;21.40;61.90;;;;;;10483200;28;20290;-81
2022/08/10 02:22:05;;;;;;;4.00;3.80;;;21.40;61.90;;;;;;10488296;28;20205;-81
2022/08/10 02:27:08;;;;;;;4.10;3.90;;;21.30;61.90;;;;;;10481065;28;20411;-83
2022/08/10 02:32:13;;;;;;;4.03;3.90;;;21.30;61.80;;;;;;10494664;28;20277;-81
2022/08/10 02:37:17;;;;;;;4.17;3.87;;;21.30;62.20;;;;;;10484941;28;20227;-81
2022/08/10 02:42:24;;;;;;;4.00;3.80;;;21.30;62.00;;;;;;10489162;28;20221;-81
2022/08/10 02:47:32;;;;;;;4.23;4.03;;;21.20;62.20;;;;;;10472223;28;20252;-81
2022/08/10 02:52:41;;;;;;;4.10;3.90;;;21.20;62.50;;;;;;10493431;28;20715;-81
2022/08/10 02:57:50;;;;;;;4.60;4.30;;;21.10;63.10;;;;;;10490078;28;20572;-81
2022/08/10 03:02:55;;;;;;;3.70;3.50;;;21.10;63.70;;;;;;10486886;28;20221;-81
2022/08/10 03:08:00;;;;;;;5.67;4.40;;;21.00;63.40;;;;;;10442826;28;20221;-81
2022/08/10 03:13:06;;;;;;;5.77;5.17;;;21.00;64.50;;;;;;10483154;28;20223;-81
2022/08/10 03:18:10;;;;;;;5.10;4.70;;;21.00;63.60;;;;;;10492009;28;20233;-81
2022/08/10 03:23:14;;;;;;;5.10;4.90;;;21.00;64.60;;;;;;10457862;28;20216;-81
2022/08/10 03:28:17;;;;;;;4.90;4.60;;;20.90;63.80;;;;;;10484535;28;20217;-81
2022/08/10 03:33:21;;;;;;;4.80;4.50;;;20.90;64.00;;;;;;10471208;28;20633;-81
2022/08/10 03:38:24;;;;;;;4.90;4.60;;;20.80;64.80;;;;;;10492226;28;20270;-81
2022/08/10 03:43:27;;;;;;;4.73;4.43;;;20.80;64.60;;;;;;10488705;28;20249;-83
2022/08/10 03:48:31;;;;;;;4.60;4.40;;;20.80;64.50;;;;;;10471070;28;20284;-79
2022/08/10 03:53:34;;;;;;;4.73;4.33;;;20.80;64.40;;;;;;10496117;28;20253;-81
2022/08/10 03:58:36;;;;;;;4.80;4.50;;;20.70;64.80;;;;;;10493265;28;20233;-81
2022/08/10 04:03:40;;;;;;;4.73;4.53;;;20.70;64.30;;;;;;10492968;28;20244;-80
2022/08/10 04:08:42;;;;;;;5.03;4.83;;;20.60;65.00;;;;;;10478320;28;20224;-83
2022/08/10 04:13:45;;;;;;;6.40;5.80;;;20.60;64.80;;;;;;10487968;28;20246;-80
2022/08/10 04:18:48;;;;;;;6.03;5.53;;;20.70;64.80;;;;;;10488369;28;20286;-81
2022/08/10 04:23:51;;;;;;;6.93;6.43;;;20.60;64.70;;;;;;10455567;28;20274;-80
2022/08/10 04:28:54;;;;;;;7.70;7.20;;;20.60;65.70;;;;;;10497391;28;20240;-81
2022/08/10 04:33:59;;;;;;;9.10;8.43;;;20.50;64.90;;;;;;10474897;28;20188;-79
2022/08/10 04:39:01;;;;;;;11.43;10.33;;;20.50;65.70;;;;;;10481484;28;20458;-79
2022/08/10 04:44:04;;;;;;;11.30;10.20;;;20.50;65.50;;;;;;10501387;28;20548;-80
2022/08/10 04:49:07;;;;;;;9.97;8.93;;;20.50;65.20;;;;;;10505923;28;20240;-81
2022/08/10 04:54:09;;;;;;;12.70;11.40;;;20.60;64.50;;;;;;10467083;28;20280;-79
2022/08/10 04:59:12;;;;;;;11.40;10.30;;;20.50;65.00;;;;;;10494514;28;20255;-81
2022/08/10 05:04:16;;;;;;;11.43;10.23;;;20.50;65.00;;;;;;10500401;28;20279;-80
2022/08/10 05:09:18;;;;;;;7.90;7.30;;;20.50;65.40;;;;;;10479518;28;20688;-79
2022/08/10 05:14:20;;;;;;;8.90;8.10;;;20.50;66.00;;;;;;10469616;28;20201;-79
2022/08/10 05:19:25;;;;;;;7.30;6.70;;;20.50;67.00;;;;;;10471788;28;20233;-82
2022/08/10 05:24:27;;;;;;;7.40;5.90;;;20.50;67.30;;;;;;10451883;28;20219;-81
2022/08/10 05:29:30;;;;;;;7.40;6.80;;;20.50;67.00;;;;;;10498735;28;20300;-81
2022/08/10 05:34:34;;;;;;;6.70;6.20;;;20.60;67.10;;;;;;10470975;28;20192;-82
2022/08/10 05:39:37;;;;;;;5.70;5.30;;;20.60;67.60;;;;;;10501098;28;20303;-81
2022/08/10 05:44:40;;;;;;;7.50;6.47;;;20.60;68.00;;;;;;10468592;28;20649;-80
2022/08/10 05:49:43;;;;;;;6.10;5.40;;;20.70;68.20;;;;;;10473678;28;20590;-83
2022/08/10 05:54:47;;;;;;;8.17;7.03;;;20.80;67.90;;;;;;10496802;28;20201;-81
2022/08/10 05:59:58;;;;;;;5.67;5.03;;;20.80;67.60;;;;;;10479448;28;20220;-80
2022/08/10 06:05:05;;;;;;;5.90;5.40;;;20.80;67.20;;;;;;10480052;28;20283;-81
2022/08/10 06:10:12;;;;;;;6.30;5.77;;;20.90;67.40;;;;;;10502788;28;20561;-79
2022/08/10 06:15:17;;;;;;;9.63;8.93;;;20.90;67.10;;;;;;10473693;28;20227;-79
2022/08/10 06:20:20;;;;;;;8.00;5.80;;;21.00;67.00;;;;;;10508472;28;20232;-82
2022/08/10 06:25:23;;;;;;;5.50;5.20;;;21.00;67.00;;;;;;10522916;28;20228;-79
2022/08/10 06:30:27;;;;;;;6.17;5.57;;;21.10;67.10;;;;;;10518349;28;20606;-80
2022/08/10 06:35:33;;;;;;;5.03;4.73;;;21.20;67.70;;;;;;10478948;28;20197;-80
2022/08/10 06:40:40;;;;;;;6.77;6.07;;;21.30;67.30;;;;;;10497643;28;20221;-79
2022/08/10 06:45:52;;;;;;;5.23;4.93;;;21.40;66.20;;;;;;10489425;28;20248;-79
2022/08/10 06:50:59;;;;;;;5.60;5.30;;;21.50;66.80;;;;;;10484393;28;20228;-81
2022/08/10 06:56:06;;;;;;;5.87;5.57;;;21.60;67.50;;;;;;10513730;28;20203;-81
2022/08/10 07:01:13;;;;;;;6.20;5.60;;;21.70;65.20;;;;;;10491811;28;20249;-81
2022/08/10 07:06:20;;;;;;;5.77;5.27;;;21.90;62.90;;;;;;10512455;28;20271;-81
2022/08/10 07:11:25;;;;;;;5.37;5.07;;;22.00;62.80;;;;;;10484690;28;20631;-82
2022/08/10 07:16:29;;;;;;;5.50;5.10;;;22.10;64.40;;;;;;10472469;22;20702;-78
2022/08/10 07:21:33;;;;;;;5.20;4.90;;;22.30;62.80;;;;;;10484133;28;20235;-79
2022/08/10 07:26:37;;;;;;;5.50;5.10;;;22.50;60.30;;;;;;10495314;28;20266;-78
2022/08/10 07:31:40;;;;;;;5.03;4.70;;;22.70;61.90;;;;;;10474232;28;20276;-78
2022/08/10 07:36:45;;;;;;;5.20;5.00;;;23.00;59.90;;;;;;10478133;28;21340;-78
2022/08/10 07:41:51;;;;;;;5.00;4.70;;;23.40;59.30;;;;;;10466970;28;20253;-78
2022/08/10 07:46:56;;;;;;;6.27;5.97;;;23.90;58.70;;;;;;10464910;28;20213;-78
2022/08/10 07:52:00;;;;;;;5.47;5.07;;;24.40;57.00;;;;;;10484082;28;20221;-78
2022/08/10 07:57:06;;;;;;;4.97;4.70;;;24.80;56.80;;;;;;10474019;28;20303;-78
2022/08/10 08:02:17;;;;;;;5.80;5.50;;;25.20;56.20;;;;;;10493373;28;21171;-78
2022/08/10 08:07:22;;;;;;;6.47;5.97;;;25.60;55.20;;;;;;10476249;28;20311;-78
2022/08/10 08:12:26;;;;;;;5.70;5.40;;;26.00;55.20;;;;;;10479411;28;20227;-79
2022/08/10 08:17:30;;;;;;;5.10;4.80;;;26.30;54.50;;;;;;10499734;28;20223;-79
2022/08/10 08:22:35;;;;;;;5.50;5.20;;;26.60;53.70;;;;;;10482054;28;20223;-79
2022/08/10 08:27:40;;;;;;;6.40;5.90;;;26.90;53.50;;;;;;10469512;28;20216;-79
2022/08/10 08:32:43;;;;;;;6.43;6.03;;;27.20;52.70;;;;;;10487193;28;20283;-79
2022/08/10 08:37:48;;;;;;;6.10;5.73;;;27.50;51.60;;;;;;10488156;28;20228;-78
2022/08/10 08:43:31;;;;;;;5.47;4.90;;;27.80;52.20;;;;;;10448906;28;20211;-79
2022/08/10 08:48:53;;;;;;;5.37;5.13;;;28.20;51.10;;;;;;10486617;28;20595;-79
2022/08/10 08:54:19;;;;;;;5.03;4.70;;;28.70;49.70;;;;;;10479924;28;20287;-79
2022/08/10 08:59:31;;;;;;;5.70;5.40;;;29.00;48.30;;;;;;10469772;28;20228;-79
2022/08/10 09:05:00;;;;;;;6.30;5.97;;;29.00;49.40;;;;;;10493425;28;20676;-79
2022/08/10 09:10:19;;;;;;;5.40;5.10;;;28.80;49.70;;;;;;10497911;28;20212;-79
2022/08/10 09:15:30;;;;;;;5.53;5.23;;;28.60;49.00;;;;;;10490436;28;20663;-79
2022/08/10 09:20:36;;;;;;;5.70;5.20;;;28.40;49.50;;;;;;10463018;28;20239;-78
2022/08/10 09:25:48;;;;;;;5.23;5.03;;;28.30;48.60;;;;;;10488038;28;20228;-78
2022/08/10 09:30:58;;;;;;;5.17;4.70;;;28.30;48.10;;;;;;10499074;28;20437;-79
2022/08/10 09:36:10;;;;;;;3.60;3.40;;;28.40;46.70;;;;;;10481460;28;20287;-78
2022/08/10 09:41:24;;;;;;;4.40;4.10;;;28.60;45.80;;;;;;10494957;28;20579;-79
2022/08/10 09:46:39;;;;;;;5.60;5.30;;;29.00;44.60;;;;;;10495569;28;20288;-79
2022/08/10 09:51:48;;;;;;;5.00;4.80;;;29.40;44.10;;;;;;10480146;28;20208;-81
2022/08/10 09:57:01;;;;;;;4.57;4.37;;;29.80;44.10;;;;;;10494764;28;20227;-79
2022/08/10 10:02:15;;;;;;;5.13;4.70;;;30.20;43.60;;;;;;10470972;28;20271;-79
2022/08/10 10:07:23;;;;;;;4.23;4.03;;;30.50;43.40;;;;;;10489610;28;20224;-79
2022/08/10 10:12:35;;;;;;;5.03;4.83;;;30.80;42.00;;;;;;10491492;28;20215;-79
2022/08/10 10:17:48;;;;;;;4.70;4.40;;;31.00;42.10;;;;;;10461545;28;20592;-79
2022/08/10 10:22:58;;;;;;;5.23;5.00;;;31.10;41.00;;;;;;10494727;28;20200;-79
2022/08/10 10:28:16;;;;;;;5.40;5.10;;;30.90;41.60;;;;;;10488125;28;20307;-80
2022/08/10 10:33:30;;;;;;;4.73;4.43;;;30.40;41.60;;;;;;10465865;28;20212;-79
2022/08/10 10:38:37;;;;;;;4.13;3.93;;;29.90;41.20;;;;;;10472495;28;20585;-79
2022/08/10 10:43:52;;;;;;;5.07;4.77;;;29.50;43.60;;;;;;10468672;28;20209;-81
2022/08/10 10:49:06;;;;;;;4.80;4.60;;;29.10;44.10;;;;;;10487595;28;20706;-78
2022/08/10 10:54:12;;;;;;;4.60;4.40;;;28.80;44.50;;;;;;10471217;28;20760;-79
2022/08/10 10:59:25;;;;;;;5.23;4.90;;;28.60;43.40;;;;;;10471778;28;20225;-79
2022/08/10 11:04:35;;;;;;;6.60;5.30;;;28.30;44.00;;;;;;10485652;28;20300;-79
2022/08/10 11:09:42;;;;;;;5.13;4.77;;;28.20;44.40;;;;;;10462630;28;20255;-79
2022/08/10 11:14:54;;;;;;;5.20;4.80;;;27.90;44.50;;;;;;10471915;28;20193;-79
2022/08/10 11:20:04;;;;;;;4.20;4.00;;;27.80;43.50;;;;;;10447046;28;20229;-79
2022/08/10 11:25:12;;;;;;;5.30;4.93;;;27.80;43.70;;;;;;10498391;28;20209;-79
2022/08/10 11:30:19;;;;;;;5.20;5.00;;;27.70;44.40;;;;;;10483598;28;20505;-79
2022/08/10 11:35:28;;;;;;;4.90;4.70;;;27.70;45.00;;;;;;10478164;28;20220;-79
2022/08/10 11:40:39;;;;;;;5.60;5.30;;;27.60;44.80;;;;;;10472845;28;20224;-77
2022/08/10 11:45:47;;;;;;;4.63;4.43;;;27.60;44.20;;;;;;10473241;28;20289;-79
2022/08/10 11:50:52;;;;;;;5.07;4.50;;;27.60;45.10;;;;;;10470426;28;20223;-79
2022/08/10 11:55:56;;;;;;;5.50;5.20;;;27.50;45.20;;;;;;10480396;28;20198;-81
2022/08/10 12:01:05;;;;;;;4.53;4.33;;;27.40;45.00;;;;;;10454805;28;20752;-78
2022/08/10 12:06:14;;;;;;;3.63;3.43;;;27.40;43.70;;;;;;10471815;28;20255;-81
2022/08/10 12:11:23;;;;;;;4.50;4.40;;;27.40;45.30;;;;;;10483620;28;20252;-79
2022/08/10 12:16:29;;;;;;;5.33;5.03;;;27.30;45.80;;;;;;10497880;28;20283;-79
2022/08/10 12:21:36;;;;;;;5.20;4.90;;;27.30;46.40;;;;;;10483417;28;20207;-79
2022/08/10 12:26:48;;;;;;;4.50;4.20;;;27.30;46.00;;;;;;10495263;28;20295;-79
2022/08/10 12:31:57;;;;;;;4.90;4.63;;;27.30;45.80;;;;;;10480889;28;20574;-79
2022/08/10 12:37:07;;;;;;;6.23;5.17;;;27.30;46.50;;;;;;10492870;28;20292;-79
2022/08/10 12:42:19;;;;;;;5.60;5.40;;;27.20;45.80;;;;;;10508426;28;20212;-79
2022/08/10 12:47:38;;;;;;;4.10;3.90;;;27.20;45.70;;;;;;10509028;28;20668;-79
2022/08/10 12:52:48;;;;;;;5.03;4.20;;;27.30;45.60;;;;;;10486519;28;20207;-79
2022/08/10 12:57:53;;;;;;;5.43;4.93;;;27.20;45.90;;;;;;10504621;28;20213;-79
2022/08/10 13:02:59;;;;;;;5.10;4.70;;;27.30;45.10;;;;;;10487701;28;20731;-79
2022/08/10 13:13:27;;;;;;;5.60;5.37;;;27.20;46.00;;;;;;10495157;28;20657;-79
2022/08/10 13:18:34;;;;;;;5.60;5.20;;;27.40;44.50;;;;;;10512495;22;20291;-78
2022/08/10 13:23:41;;;;;;;5.20;4.90;;;27.40;45.30;;;;;;10517568;28;20204;-78
2022/08/10 13:28:47;;;;;;;5.10;4.80;;;27.40;44.30;;;;;;10542990;28;20211;-78
2022/08/10 13:33:52;;;;;;;5.33;5.03;;;27.40;44.60;;;;;;10574215;28;20197;-79
2022/08/10 13:38:56;;;;;;;4.60;4.40;;;27.50;43.80;;;;;;10589294;28;20215;-78
2022/08/10 13:44:00;;;;;;;5.30;4.90;;;27.50;43.80;;;;;;10590844;28;20200;-78
2022/08/10 13:49:05;;;;;;;4.43;4.20;;;27.50;45.50;;;;;;10564861;28;20243;-78
2022/08/10 13:54:10;;;;;;;5.03;4.73;;;27.60;43.50;;;;;;10552933;28;20220;-78
2022/08/10 13:59:14;;;;;;;4.67;4.47;;;27.60;44.00;;;;;;10578920;28;20260;-78
2022/08/10 14:04:19;;;;;;;5.00;4.77;;;27.60;44.20;;;;;;10550115;28;20203;-79
2022/08/10 14:09:27;;;;;;;5.30;4.90;;;27.70;43.70;;;;;;10593633;28;20666;-78
2022/08/10 14:14:30;;;;;;;4.80;4.60;;;27.80;44.20;;;;;;10594796;28;20605;-78
2022/08/10 14:19:38;;;;;;;3.43;3.33;;;27.80;43.50;;;;;;10595147;28;20248;-78
2022/08/10 14:24:40;;;;;;;4.17;3.97;;;27.80;44.20;;;;;;10584449;28;20274;-78
2022/08/10 14:29:45;;;;;;;5.20;4.90;;;27.80;44.40;;;;;;10590617;28;20358;-79
2022/08/10 14:34:50;;;;;;;5.67;5.20;;;27.70;45.60;;;;;;10583429;28;20195;-79
2022/08/10 14:39:58;;;;;;;3.83;3.53;;;27.70;43.70;;;;;;10594222;28;20630;-78
2022/08/10 14:45:05;;;;;;;4.60;4.40;;;27.80;43.70;;;;;;10596414;28;20291;-78
2022/08/10 14:50:15;;;;;;;3.20;2.97;;;27.80;43.20;;;;;;10596713;28;20230;-78
2022/08/10 14:55:18;;;;;;;4.50;4.30;;;27.80;43.80;;;;;;10573702;28;20228;-78
2022/08/10 15:00:20;;;;;;;5.20;5.00;;;27.80;44.40;;;;;;10594132;28;20215;-78
2022/08/10 15:05:28;;;;;;;4.63;4.43;;;27.70;43.20;;;;;;10581819;28;20280;-78
2022/08/10 15:10:31;;;;;;;4.43;4.13;;;27.70;43.40;;;;;;10581988;28;20222;-79
2022/08/10 15:15:36;;;;;;;5.00;4.73;;;27.70;43.70;;;;;;10552151;28;20199;-78
2022/08/10 15:20:40;;;;;;;5.40;5.10;;;27.70;42.80;;;;;;10589486;28;20226;-78
2022/08/10 15:25:46;;;;;;;4.33;4.13;;;27.70;44.20;;;;;;10568593;28;20215;-79
2022/08/10 15:30:50;;;;;;;4.70;4.50;;;27.70;44.00;;;;;;10590091;28;20226;-78
2022/08/10 15:41:17;;;;;;;4.10;4.00;;;27.70;43.30;;;;;;10568309;28;20225;-78
2022/08/10 15:46:23;;;;;;;4.43;4.30;;;27.60;42.90;;;;;;10586045;28;20203;-78
2022/08/10 15:51:31;;;;;;;4.10;3.90;;;27.60;41.60;;;;;;10561922;28;20706;-78
2022/08/10 15:56:39;;;;;;;4.20;4.10;;;27.50;44.30;;;;;;10565218;28;20230;-78
2022/08/10 16:01:48;;;;;;;4.40;4.20;;;27.50;43.70;;;;;;10573737;28;20309;-78
2022/08/10 16:06:58;;;;;;;4.70;4.40;;;27.50;43.70;;;;;;10578921;28;20573;-78
2022/08/10 16:12:04;;;;;;;4.30;4.10;;;27.60;42.80;;;;;;10569733;28;20268;-78
2022/08/10 16:17:10;;;;;;;4.13;3.90;;;27.50;44.20;;;;;;10552688;28;20223;-78
2022/08/10 16:22:15;;;;;;;5.43;4.10;;;27.50;43.20;;;;;;10590358;28;20195;-78
2022/08/10 16:27:21;;;;;;;4.07;3.87;;;27.50;43.10;;;;;;10561078;28;20301;-78
2022/08/10 16:32:24;;;;;;;3.70;3.50;;;27.50;43.30;;;;;;10584582;28;20206;-78
2022/08/10 16:37:34;;;;;;;4.10;3.90;;;27.50;44.80;;;;;;10588519;28;20264;-78
2022/08/10 16:42:41;;;;;;;4.90;4.13;;;27.50;43.10;;;;;;10540024;28;20211;-79
2022/08/10 16:47:46;;;;;;;4.70;4.40;;;27.50;42.90;;;;;;10539044;28;20230;-79
2022/08/10 16:52:52;;;;;;;4.00;3.80;;;27.50;43.30;;;;;;10567950;28;20202;-79
2022/08/10 16:57:57;;;;;;;4.20;4.00;;;27.50;43.30;;;;;;10526631;28;20229;-79
2022/08/10 17:03:05;;;;;;;4.47;4.17;;;27.40;45.30;;;;;;10553953;28;20200;-79
2022/08/10 17:08:11;;;;;;;5.33;3.27;;;27.30;45.30;;;;;;10529448;28;20713;-79
2022/08/10 17:13:14;;;;;;;3.90;3.70;;;27.20;44.30;;;;;;10551445;28;20278;-79
2022/08/10 17:18:26;;;;;;;4.50;4.30;;;27.10;46.60;;;;;;10534715;28;20231;-79
2022/08/10 17:23:33;;;;;;;3.40;3.20;;;27.00;45.60;;;;;;10538380;28;20227;-79
2022/08/10 17:28:41;;;;;;;4.33;4.13;;;27.00;45.30;;;;;;10553135;28;20227;-79
2022/08/10 17:33:45;;;;;;;3.80;3.60;;;26.90;47.90;;;;;;10546508;28;20204;-79
2022/08/10 17:38:51;;;;;;;4.40;4.20;;;26.80;48.80;;;;;;10548945;28;20219;-80
2022/08/10 17:43:58;;;;;;;4.53;4.20;;;26.70;48.80;;;;;;10534371;28;20234;-79
2022/08/10 17:49:06;;;;;;;4.53;4.23;;;26.60;49.60;;;;;;10539700;28;20234;-79
2022/08/10 17:54:23;;;;;;;4.20;4.00;;;26.60;51.80;;;;;;10539106;28;20223;-79
2022/08/10 17:59:28;;;;;;;4.20;4.00;;;26.50;48.70;;;;;;10550864;28;20314;-79
2022/08/10 18:04:32;;;;;;;4.17;3.97;;;26.40;45.90;;;;;;10563494;28;20205;-79
2022/08/10 18:09:39;;;;;;;4.27;4.07;;;26.40;50.50;;;;;;10559570;28;20220;-79
2022/08/10 18:14:44;;;;;;;5.10;4.67;;;26.40;51.40;;;;;;10557566;28;20578;-79
2022/08/10 18:19:50;;;;;;;4.57;4.37;;;26.30;48.70;;;;;;10549663;28;20251;-80
2022/08/10 18:24:55;;;;;;;3.90;3.70;;;26.20;53.70;;;;;;10563066;28;20205;-80
2022/08/10 18:30:01;;;;;;;5.03;4.73;;;26.10;52.60;;;;;;10559744;28;20247;-79
2022/08/10 18:35:06;;;;;;;5.20;4.77;;;26.00;52.10;;;;;;10533506;28;20210;-79
2022/08/10 18:40:11;;;;;;;4.47;4.10;;;25.90;54.60;;;;;;10574402;28;20637;-78
2022/08/10 18:45:16;;;;;;;4.70;4.40;;;25.80;53.80;;;;;;10513478;28;20212;-81
2022/08/10 18:50:23;;;;;;;4.80;4.40;;;25.80;52.50;;;;;;10568544;28;20257;-79
2022/08/10 18:55:29;;;;;;;3.60;3.40;;;25.70;50.30;;;;;;10561798;28;20201;-79
2022/08/10 19:00:36;;;;;;;4.73;4.43;;;25.60;51.00;;;;;;10552116;28;20223;-79
2022/08/10 19:06:04;;;;;;;4.87;4.50;;;25.60;50.90;;;;;;10557338;28;20632;-79
2022/08/10 19:11:16;;;;;;;4.87;4.67;;;25.50;49.80;;;;;;10516761;28;20629;-79
2022/08/10 19:16:31;;;;;;;5.03;4.73;;;25.40;50.90;;;;;;10545916;28;20291;-79
2022/08/10 19:21:43;;;;;;;4.30;3.90;;;25.30;51.10;;;;;;10505671;22;20294;-80
2022/08/10 19:26:54;;;;;;;4.63;4.33;;;25.30;51.00;;;;;;10461157;28;20664;-80
2022/08/10 19:32:03;;;;;;;4.43;4.03;;;25.20;50.00;;;;;;10428518;28;20229;-80
2022/08/10 19:37:11;;;;;;;5.17;4.90;;;25.10;49.80;;;;;;10422521;28;20596;-80
2022/08/10 19:42:19;;;;;;;5.70;5.23;;;25.10;51.50;;;;;;10437732;28;20226;-80
2022/08/10 19:47:28;;;;;;;4.97;4.67;;;25.00;50.20;;;;;;10420182;28;20259;-77
2022/08/10 19:52:38;;;;;;;4.80;4.33;;;24.90;49.90;;;;;;10443964;28;20212;-80
2022/08/10 19:57:49;;;;;;;4.70;4.43;;;24.80;49.90;;;;;;10425108;28;20201;-77
2022/08/10 20:03:02;;;;;;;5.07;4.77;;;24.80;50.60;;;;;;10436263;28;20229;-79
2022/08/10 20:08:11;;;;;;;4.13;3.93;;;24.70;50.90;;;;;;10412994;28;20308;-77
2022/08/10 20:13:22;;;;;;;4.70;4.50;;;24.60;52.60;;;;;;10416964;28;20202;-78
2022/08/10 20:18:30;;;;;;;5.47;5.07;;;24.50;51.20;;;;;;10442086;28;20221;-78
2022/08/10 20:23:35;;;;;;;5.30;4.90;;;24.40;52.30;;;;;;10426106;28;20205;-79
2022/08/10 20:28:42;;;;;;;7.73;4.60;;;24.40;51.40;;;;;;10444590;28;20225;-77
2022/08/10 20:33:55;;;;;;;4.97;4.67;;;24.30;51.30;;;;;;10447673;28;20617;-78
2022/08/10 20:39:05;;;;;;;5.20;4.90;;;24.30;51.80;;;;;;10415893;28;20241;-77
2022/08/10 20:44:24;;;;;;;5.00;4.60;;;24.20;51.40;;;;;;10429558;28;20229;-79
2022/08/10 20:49:33;;;;;;;5.20;4.90;;;24.10;51.50;;;;;;10435133;28;20212;-78
2022/08/10 20:54:40;;;;;;;4.30;4.10;;;24.10;52.00;;;;;;10415721;28;20186;-78
2022/08/10 20:59:55;;;;;;;5.10;4.63;;;24.00;51.90;;;;;;10440841;28;20237;-77
2022/08/10 21:05:05;;;;;;;4.83;4.53;;;24.00;51.50;;;;;;10440658;28;20209;-78
2022/08/10 21:10:19;;;;;;;5.77;5.47;;;23.90;52.40;;;;;;10440449;28;20637;-80
2022/08/10 21:15:37;;;;;;;4.30;4.10;;;23.90;52.40;;;;;;10436203;28;20198;-81
2022/08/10 21:20:49;;;;;;;4.77;4.47;;;23.80;52.90;;;;;;10437336;28;20225;-78
2022/08/10 22:53:07;;;;;;;5.13;4.83;;;22.70;53.90;;;;;;10433611;28;20213;-79
2022/08/10 23:03:51;;;;;;;4.73;4.50;;;22.50;54.40;;;;;;10375001;28;20209;-79
2022/08/10 23:08:59;;;;;;;4.27;4.07;;;22.50;54.70;;;;;;10421642;28;20233;-78
2022/08/10 23:14:05;;;;;;;4.63;4.23;;;22.50;53.90;;;;;;10429023;28;20200;-78
2022/08/10 23:24:14;;;;;;;4.07;3.87;;;22.50;53.50;;;;;;10432992;28;20190;-79
2022/08/10 23:29:16;;;;;;;4.60;4.30;;;22.40;53.90;;;;;;10434338;28;20225;-79
2022/08/10 23:34:24;;;;;;;3.90;3.70;;;22.40;53.70;;;;;;10439221;28;20189;-79
2022/08/10 23:39:33;;;;;;;4.00;3.80;;;22.30;53.70;;;;;;10444353;28;20224;-79
2022/08/10 23:44:37;;;;;;;4.40;4.10;;;22.30;53.70;;;;;;10430155;28;20197;-78
2022/08/10 23:49:42;;;;;;;4.17;3.97;;;22.20;53.70;;;;;;10425647;28;20261;-79
2022/08/10 23:54:49;;;;;;;4.30;3.87;;;22.20;54.20;;;;;;10437462;28;20273;-80
2022/08/10 23:59:55;;;;;;;4.03;3.80;;;22.10;53.90;;;;;;10432949;28;20776;-79
